sensor_id;sensor_type;location;lat;lon;timestamp;temperature;humidity
15969;DHT22;8085;53.472;9.794;2024-01-30T00:00:35;7.00;99.90
15969;DHT22;8085;53.472;9.794;2024-01-30T00:03:02;7.00;99.90
15969;DHT22;8085;53.472;9.794;2024-01-30T00:05:29;7.00;99.90
15969;DHT22;8085;53.472;9.794;2024-01-30T00:07:56;6.90;99.90
15969;DHT22;8085;53.472;9.794;2024-01-30T00:10:24;6.90;99.90
15969;DHT22;8085;53.472;9.794;2024-01-30T00:12:51;6.90;99.90
15969;DHT22;8085;53.472;9.794;2024-01-30T00:15:24;6.80;99.90
15969;DHT22;8085;53.472;9.794;2024-01-30T00:17:52;6.80;99.90
15969;DHT22;8085;53.472;9.794;2024-01-30T00:20:21;6.70;99.90
15969;DHT22;8085;53.472;9.794;2024-01-30T00:22:49;6.80;99.90
15969;DHT22;8085;53.472;9.794;2024-01-30T00:25:17;6.80;99.90
15969;DHT22;8085;53.472;9.794;2024-01-30T00:27:46;6.70;99.90
15969;DHT22;8085;53.472;9.794;2024-01-30T00:30:13;6.70;99.90
15969;DHT22;8085;53.472;9.794;2024-01-30T00:32:44;6.70;99.90
15969;DHT22;8085;53.472;9.794;2024-01-30T00:35:11;6.70;99.90
15969;DHT22;8085;53.472;9.794;2024-01-30T00:37:39;6.70;99.90
15969;DHT22;8085;53.472;9.794;2024-01-30T00:40:07;6.70;99.90
15969;DHT22;8085;53.472;9.794;2024-01-30T00:42:36;6.60;99.90
15969;DHT22;8085;53.472;9.794;2024-01-30T00:45:12;6.70;99.90
15969;DHT22;8085;53.472;9.794;2024-01-30T00:47:39;6.60;99.90
15969;DHT22;8085;53.472;9.794;2024-01-30T00:50:06;6.60;99.90
15969;DHT22;8085;53.472;9.794;2024-01-30T00:52:33;6.60;99.90
15969;DHT22;8085;53.472;9.794;2024-01-30T00:55:01;6.60;99.90
15969;DHT22;8085;53.472;9.794;2024-01-30T00:57:28;6.60;99.90
15969;DHT22;8085;53.472;9.794;2024-01-30T00:59:55;6.50;99.90
15969;DHT22;8085;53.472;9.794;2024-01-30T01:02:23;6.60;99.90
15969;DHT22;8085;53.472;9.794;2024-01-30T01:04:50;6.70;99.90
15969;DHT22;8085;53.472;9.794;2024-01-30T01:07:20;6.60;99.90
15969;DHT22;8085;53.472;9.794;2024-01-30T01:09:47;6.60;99.90
15969;DHT22;8085;53.472;9.794;2024-01-30T01:12:13;6.50;99.90
15969;DHT22;8085;53.472;9.794;2024-01-30T01:14:41;6.50;99.90
15969;DHT22;8085;53.472;9.794;2024-01-30T01:17:08;6.60;99.90
15969;DHT22;8085;53.472;9.794;2024-01-30T01:19:37;6.50;99.90
15969;DHT22;8085;53.472;9.794;2024-01-30T01:22:07;6.50;99.90
15969;DHT22;8085;53.472;9.794;2024-01-30T01:24:36;6.50;99.90
15969;DHT22;8085;53.472;9.794;2024-01-30T01:27:03;6.40;99.90
15969;DHT22;8085;53.472;9.794;2024-01-30T01:29:30;6.40;99.90
15969;DHT22;8085;53.472;9.794;2024-01-30T01:31:57;6.30;99.90
15969;DHT22;8085;53.472;9.794;2024-01-30T01:34:26;6.40;99.90
15969;DHT22;8085;53.472;9.794;2024-01-30T01:36:55;6.30;99.90
15969;DHT22;8085;53.472;9.794;2024-01-30T01:39:22;6.30;99.90
15969;DHT22;8085;53.472;9.794;2024-01-30T01:41:49;6.30;99.90
15969;DHT22;8085;53.472;9.794;2024-01-30T01:44:17;6.40;99.90
15969;DHT22;8085;53.472;9.794;2024-01-30T01:46:45;6.30;99.90
15969;DHT22;8085;53.472;9.794;2024-01-30T01:49:12;6.20;99.90
15969;DHT22;8085;53.472;9.794;2024-01-30T01:51:41;6.20;99.90
15969;DHT22;8085;53.472;9.794;2024-01-30T01:54:11;6.20;99.90
15969;DHT22;8085;53.472;9.794;2024-01-30T01:56:39;6.10;99.90
15969;DHT22;8085;53.472;9.794;2024-01-30T01:59:07;6.10;99.90
15969;DHT22;8085;53.472;9.794;2024-01-30T02:01:36;6.10;99.90
15969;DHT22;8085;53.472;9.794;2024-01-30T02:04:04;6.10;99.90
15969;DHT22;8085;53.472;9.794;2024-01-30T02:06:32;6.10;99.90
15969;DHT22;8085;53.472;9.794;2024-01-30T02:08:59;6.00;99.90
15969;DHT22;8085;53.472;9.794;2024-01-30T02:11:27;6.00;99.90
15969;DHT22;8085;53.472;9.794;2024-01-30T02:13:54;6.00;99.90
15969;DHT22;8085;53.472;9.794;2024-01-30T02:16:21;6.00;99.90
15969;DHT22;8085;53.472;9.794;2024-01-30T02:18:51;6.00;99.90
15969;DHT22;8085;53.472;9.794;2024-01-30T02:21:19;6.10;99.90
15969;DHT22;8085;53.472;9.794;2024-01-30T02:23:47;6.10;99.90
15969;DHT22;8085;53.472;9.794;2024-01-30T02:26:14;6.10;99.90
15969;DHT22;8085;53.472;9.794;2024-01-30T02:28:42;6.10;99.90
15969;DHT22;8085;53.472;9.794;2024-01-30T02:31:10;6.10;99.90
15969;DHT22;8085;53.472;9.794;2024-01-30T02:33:37;6.10;99.90
15969;DHT22;8085;53.472;9.794;2024-01-30T02:36:05;6.10;99.90
15969;DHT22;8085;53.472;9.794;2024-01-30T02:38:33;6.10;99.90
15969;DHT22;8085;53.472;9.794;2024-01-30T02:41:01;6.20;99.90
15969;DHT22;8085;53.472;9.794;2024-01-30T02:43:29;6.20;99.90
15969;DHT22;8085;53.472;9.794;2024-01-30T02:45:56;6.10;99.90
15969;DHT22;8085;53.472;9.794;2024-01-30T02:48:24;6.10;99.90
15969;DHT22;8085;53.472;9.794;2024-01-30T02:50:50;6.10;99.90
15969;DHT22;8085;53.472;9.794;2024-01-30T02:53:17;6.10;99.90
15969;DHT22;8085;53.472;9.794;2024-01-30T02:55:46;6.20;99.90
15969;DHT22;8085;53.472;9.794;2024-01-30T02:58:13;6.20;99.90
15969;DHT22;8085;53.472;9.794;2024-01-30T03:00:40;6.20;99.90
15969;DHT22;8085;53.472;9.794;2024-01-30T03:03:07;6.20;99.90
15969;DHT22;8085;53.472;9.794;2024-01-30T03:05:34;6.20;99.90
15969;DHT22;8085;53.472;9.794;2024-01-30T03:08:01;6.10;99.90
15969;DHT22;8085;53.472;9.794;2024-01-30T03:10:34;6.20;99.90
15969;DHT22;8085;53.472;9.794;2024-01-30T03:13:02;6.10;99.90
15969;DHT22;8085;53.472;9.794;2024-01-30T03:15:29;6.10;99.90
15969;DHT22;8085;53.472;9.794;2024-01-30T03:17:56;6.10;99.90
15969;DHT22;8085;53.472;9.794;2024-01-30T03:20:23;6.10;99.90
15969;DHT22;8085;53.472;9.794;2024-01-30T03:22:50;6.10;99.90
15969;DHT22;8085;53.472;9.794;2024-01-30T03:25:18;6.10;99.90
15969;DHT22;8085;53.472;9.794;2024-01-30T03:27:45;6.00;99.90
15969;DHT22;8085;53.472;9.794;2024-01-30T03:30:14;6.00;99.90
15969;DHT22;8085;53.472;9.794;2024-01-30T03:32:44;6.00;99.90
15969;DHT22;8085;53.472;9.794;2024-01-30T03:35:11;6.00;99.90
15969;DHT22;8085;53.472;9.794;2024-01-30T03:37:40;5.90;99.90
15969;DHT22;8085;53.472;9.794;2024-01-30T03:40:07;6.00;99.90
15969;DHT22;8085;53.472;9.794;2024-01-30T03:42:35;5.90;99.90
15969;DHT22;8085;53.472;9.794;2024-01-30T03:45:02;5.90;99.90
15969;DHT22;8085;53.472;9.794;2024-01-30T03:47:30;5.90;99.90
15969;DHT22;8085;53.472;9.794;2024-01-30T03:49:58;5.80;99.90
15969;DHT22;8085;53.472;9.794;2024-01-30T03:52:26;5.80;99.90
15969;DHT22;8085;53.472;9.794;2024-01-30T03:54:53;5.80;99.90
15969;DHT22;8085;53.472;9.794;2024-01-30T03:57:20;5.80;99.90
15969;DHT22;8085;53.472;9.794;2024-01-30T03:59:47;5.80;99.90
15969;DHT22;8085;53.472;9.794;2024-01-30T04:02:14;5.80;99.90
15969;DHT22;8085;53.472;9.794;2024-01-30T04:04:42;5.80;99.90
15969;DHT22;8085;53.472;9.794;2024-01-30T04:07:09;5.80;99.90
15969;DHT22;8085;53.472;9.794;2024-01-30T04:09:38;5.80;99.90
15969;DHT22;8085;53.472;9.794;2024-01-30T04:12:05;5.80;99.90
15969;DHT22;8085;53.472;9.794;2024-01-30T04:14:32;5.90;99.90
15969;DHT22;8085;53.472;9.794;2024-01-30T04:16:59;5.80;99.90
15969;DHT22;8085;53.472;9.794;2024-01-30T04:19:26;5.80;99.90
15969;DHT22;8085;53.472;9.794;2024-01-30T04:21:55;5.80;99.90
15969;DHT22;8085;53.472;9.794;2024-01-30T04:24:21;5.70;99.90
15969;DHT22;8085;53.472;9.794;2024-01-30T04:26:48;5.70;99.90
15969;DHT22;8085;53.472;9.794;2024-01-30T04:29:15;5.60;99.90
15969;DHT22;8085;53.472;9.794;2024-01-30T04:31:44;5.60;99.90
15969;DHT22;8085;53.472;9.794;2024-01-30T04:34:11;5.60;99.90
15969;DHT22;8085;53.472;9.794;2024-01-30T04:36:38;5.60;99.90
15969;DHT22;8085;53.472;9.794;2024-01-30T04:39:08;5.60;99.90
15969;DHT22;8085;53.472;9.794;2024-01-30T04:41:35;5.60;99.90
15969;DHT22;8085;53.472;9.794;2024-01-30T04:44:02;5.60;99.90
15969;DHT22;8085;53.472;9.794;2024-01-30T04:46:34;5.60;99.90
15969;DHT22;8085;53.472;9.794;2024-01-30T04:49:01;5.60;99.90
15969;DHT22;8085;53.472;9.794;2024-01-30T04:51:29;5.70;99.90
15969;DHT22;8085;53.472;9.794;2024-01-30T04:53:56;5.70;99.90
15969;DHT22;8085;53.472;9.794;2024-01-30T04:56:24;5.70;99.90
15969;DHT22;8085;53.472;9.794;2024-01-30T04:58:51;5.80;99.90
15969;DHT22;8085;53.472;9.794;2024-01-30T05:01:18;5.70;99.90
15969;DHT22;8085;53.472;9.794;2024-01-30T05:03:45;5.70;99.90
15969;DHT22;8085;53.472;9.794;2024-01-30T05:06:12;5.70;99.90
15969;DHT22;8085;53.472;9.794;2024-01-30T05:08:42;5.70;99.90
15969;DHT22;8085;53.472;9.794;2024-01-30T05:11:09;5.70;99.90
15969;DHT22;8085;53.472;9.794;2024-01-30T05:13:38;5.70;99.90
15969;DHT22;8085;53.472;9.794;2024-01-30T05:16:05;5.70;99.90
15969;DHT22;8085;53.472;9.794;2024-01-30T05:18:32;5.70;99.90
15969;DHT22;8085;53.472;9.794;2024-01-30T05:20:59;5.70;99.90
15969;DHT22;8085;53.472;9.794;2024-01-30T05:23:26;5.80;99.90
15969;DHT22;8085;53.472;9.794;2024-01-30T05:25:53;5.80;99.90
15969;DHT22;8085;53.472;9.794;2024-01-30T05:28:20;5.80;99.90
15969;DHT22;8085;53.472;9.794;2024-01-30T05:30:48;5.80;99.90
15969;DHT22;8085;53.472;9.794;2024-01-30T05:33:15;5.80;99.90
15969;DHT22;8085;53.472;9.794;2024-01-30T05:35:42;5.70;99.90
15969;DHT22;8085;53.472;9.794;2024-01-30T05:38:11;5.70;99.90
15969;DHT22;8085;53.472;9.794;2024-01-30T05:40:39;5.70;99.90
15969;DHT22;8085;53.472;9.794;2024-01-30T05:43:08;5.70;99.90
15969;DHT22;8085;53.472;9.794;2024-01-30T05:45:35;5.70;99.90
15969;DHT22;8085;53.472;9.794;2024-01-30T05:48:04;5.70;99.90
15969;DHT22;8085;53.472;9.794;2024-01-30T05:50:32;5.70;99.90
15969;DHT22;8085;53.472;9.794;2024-01-30T05:53:00;5.70;99.90
15969;DHT22;8085;53.472;9.794;2024-01-30T05:55:35;5.70;99.90
15969;DHT22;8085;53.472;9.794;2024-01-30T05:58:02;5.70;99.90
15969;DHT22;8085;53.472;9.794;2024-01-30T06:00:30;5.70;99.90
15969;DHT22;8085;53.472;9.794;2024-01-30T06:02:57;5.70;99.90
15969;DHT22;8085;53.472;9.794;2024-01-30T06:05:25;5.80;99.90
15969;DHT22;8085;53.472;9.794;2024-01-30T06:07:52;5.90;99.90
15969;DHT22;8085;53.472;9.794;2024-01-30T06:10:20;6.00;99.90
15969;DHT22;8085;53.472;9.794;2024-01-30T06:12:47;6.10;99.90
15969;DHT22;8085;53.472;9.794;2024-01-30T06:15:15;6.20;99.90
15969;DHT22;8085;53.472;9.794;2024-01-30T06:17:42;6.20;99.90
15969;DHT22;8085;53.472;9.794;2024-01-30T06:20:09;6.30;99.90
15969;DHT22;8085;53.472;9.794;2024-01-30T06:22:38;6.30;99.90
15969;DHT22;8085;53.472;9.794;2024-01-30T06:25:05;6.30;99.90
15969;DHT22;8085;53.472;9.794;2024-01-30T06:27:32;6.40;99.90
15969;DHT22;8085;53.472;9.794;2024-01-30T06:30:00;6.40;99.90
15969;DHT22;8085;53.472;9.794;2024-01-30T06:32:27;6.50;99.90
15969;DHT22;8085;53.472;9.794;2024-01-30T06:34:59;6.50;99.90
15969;DHT22;8085;53.472;9.794;2024-01-30T06:37:26;6.60;99.90
15969;DHT22;8085;53.472;9.794;2024-01-30T06:39:54;6.60;99.90
15969;DHT22;8085;53.472;9.794;2024-01-30T06:42:21;6.70;99.90
15969;DHT22;8085;53.472;9.794;2024-01-30T06:44:48;6.70;99.90
15969;DHT22;8085;53.472;9.794;2024-01-30T06:47:15;6.70;99.90
15969;DHT22;8085;53.472;9.794;2024-01-30T06:49:42;6.90;99.90
15969;DHT22;8085;53.472;9.794;2024-01-30T06:52:10;6.80;99.90
15969;DHT22;8085;53.472;9.794;2024-01-30T06:54:40;6.80;99.90
15969;DHT22;8085;53.472;9.794;2024-01-30T06:57:08;6.80;99.90
15969;DHT22;8085;53.472;9.794;2024-01-30T06:59:37;6.80;99.90
15969;DHT22;8085;53.472;9.794;2024-01-30T07:02:08;6.70;99.90
15969;DHT22;8085;53.472;9.794;2024-01-30T07:04:40;6.80;99.90
15969;DHT22;8085;53.472;9.794;2024-01-30T07:07:10;6.80;99.90
15969;DHT22;8085;53.472;9.794;2024-01-30T07:10:05;6.90;99.90
15969;DHT22;8085;53.472;9.794;2024-01-30T07:12:41;6.90;99.90
15969;DHT22;8085;53.472;9.794;2024-01-30T07:15:08;7.00;99.90
15969;DHT22;8085;53.472;9.794;2024-01-30T07:17:35;6.90;99.90
15969;DHT22;8085;53.472;9.794;2024-01-30T07:20:05;6.90;99.90
15969;DHT22;8085;53.472;9.794;2024-01-30T07:22:39;7.00;99.90
15969;DHT22;8085;53.472;9.794;2024-01-30T07:25:11;6.80;99.90
15969;DHT22;8085;53.472;9.794;2024-01-30T07:27:46;7.00;99.90
15969;DHT22;8085;53.472;9.794;2024-01-30T07:30:17;7.00;99.90
15969;DHT22;8085;53.472;9.794;2024-01-30T07:32:53;7.00;99.90
15969;DHT22;8085;53.472;9.794;2024-01-30T07:35:22;7.10;99.90
15969;DHT22;8085;53.472;9.794;2024-01-30T07:37:55;7.10;99.90
15969;DHT22;8085;53.472;9.794;2024-01-30T07:40:36;7.10;99.90
15969;DHT22;8085;53.472;9.794;2024-01-30T07:43:04;7.20;99.90
15969;DHT22;8085;53.472;9.794;2024-01-30T07:45:31;7.20;99.90
15969;DHT22;8085;53.472;9.794;2024-01-30T07:47:59;7.30;99.90
15969;DHT22;8085;53.472;9.794;2024-01-30T07:50:33;7.30;99.90
15969;DHT22;8085;53.472;9.794;2024-01-30T07:53:00;7.30;99.90
15969;DHT22;8085;53.472;9.794;2024-01-30T07:55:27;7.20;99.90
15969;DHT22;8085;53.472;9.794;2024-01-30T07:57:56;7.20;99.90
15969;DHT22;8085;53.472;9.794;2024-01-30T08:00:25;7.20;99.90
15969;DHT22;8085;53.472;9.794;2024-01-30T08:02:53;7.30;99.90
15969;DHT22;8085;53.472;9.794;2024-01-30T08:05:21;7.20;99.90
15969;DHT22;8085;53.472;9.794;2024-01-30T08:07:49;7.20;99.90
15969;DHT22;8085;53.472;9.794;2024-01-30T08:10:16;7.30;99.90
15969;DHT22;8085;53.472;9.794;2024-01-30T08:12:45;7.30;99.90
15969;DHT22;8085;53.472;9.794;2024-01-30T08:15:12;7.30;99.90
15969;DHT22;8085;53.472;9.794;2024-01-30T08:17:41;7.30;99.90
15969;DHT22;8085;53.472;9.794;2024-01-30T08:20:09;7.30;99.90
15969;DHT22;8085;53.472;9.794;2024-01-30T08:22:42;7.30;99.90
15969;DHT22;8085;53.472;9.794;2024-01-30T08:25:10;7.30;99.90
15969;DHT22;8085;53.472;9.794;2024-01-30T08:27:37;7.30;99.90
15969;DHT22;8085;53.472;9.794;2024-01-30T08:30:10;7.30;99.90
15969;DHT22;8085;53.472;9.794;2024-01-30T08:33:00;7.30;99.90
15969;DHT22;8085;53.472;9.794;2024-01-30T08:35:32;7.40;99.90
15969;DHT22;8085;53.472;9.794;2024-01-30T08:38:42;7.40;99.90
15969;DHT22;8085;53.472;9.794;2024-01-30T08:41:13;7.40;99.90
15969;DHT22;8085;53.472;9.794;2024-01-30T08:43:44;7.30;99.90
15969;DHT22;8085;53.472;9.794;2024-01-30T08:46:27;7.40;99.90
15969;DHT22;8085;53.472;9.794;2024-01-30T08:56:23;7.50;99.90
15969;DHT22;8085;53.472;9.794;2024-01-30T08:58:54;7.60;99.90
15969;DHT22;8085;53.472;9.794;2024-01-30T09:09:04;7.80;99.90
15969;DHT22;8085;53.472;9.794;2024-01-30T09:15:47;8.00;99.90
15969;DHT22;8085;53.472;9.794;2024-01-30T09:18:14;8.10;99.90
15969;DHT22;8085;53.472;9.794;2024-01-30T09:20:44;8.10;99.90
15969;DHT22;8085;53.472;9.794;2024-01-30T09:23:15;8.10;99.90
15969;DHT22;8085;53.472;9.794;2024-01-30T09:25:44;8.20;99.90
15969;DHT22;8085;53.472;9.794;2024-01-30T09:28:11;8.10;99.90
15969;DHT22;8085;53.472;9.794;2024-01-30T09:30:38;8.20;99.90
15969;DHT22;8085;53.472;9.794;2024-01-30T09:33:08;8.20;99.90
15969;DHT22;8085;53.472;9.794;2024-01-30T09:35:35;8.20;99.90
15969;DHT22;8085;53.472;9.794;2024-01-30T09:38:02;8.20;99.90
15969;DHT22;8085;53.472;9.794;2024-01-30T09:40:29;8.20;99.90
15969;DHT22;8085;53.472;9.794;2024-01-30T09:42:56;8.20;99.90
15969;DHT22;8085;53.472;9.794;2024-01-30T09:45:28;8.20;99.90
15969;DHT22;8085;53.472;9.794;2024-01-30T09:47:59;8.20;99.90
15969;DHT22;8085;53.472;9.794;2024-01-30T09:50:27;8.20;99.90
15969;DHT22;8085;53.472;9.794;2024-01-30T09:52:57;8.20;99.90
15969;DHT22;8085;53.472;9.794;2024-01-30T09:55:25;8.20;99.90
15969;DHT22;8085;53.472;9.794;2024-01-30T09:57:52;8.20;99.90
15969;DHT22;8085;53.472;9.794;2024-01-30T10:00:19;8.20;99.90
15969;DHT22;8085;53.472;9.794;2024-01-30T10:02:48;8.30;99.90
15969;DHT22;8085;53.472;9.794;2024-01-30T10:05:17;8.20;99.90
15969;DHT22;8085;53.472;9.794;2024-01-30T10:07:56;8.40;99.90
15969;DHT22;8085;53.472;9.794;2024-01-30T10:10:25;8.40;99.90
15969;DHT22;8085;53.472;9.794;2024-01-30T10:12:52;8.50;99.90
15969;DHT22;8085;53.472;9.794;2024-01-30T10:15:19;8.50;99.90
15969;DHT22;8085;53.472;9.794;2024-01-30T10:17:46;8.60;99.90
15969;DHT22;8085;53.472;9.794;2024-01-30T10:20:13;8.70;99.90
15969;DHT22;8085;53.472;9.794;2024-01-30T10:22:43;8.70;99.90
15969;DHT22;8085;53.472;9.794;2024-01-30T10:25:13;8.80;99.90
15969;DHT22;8085;53.472;9.794;2024-01-30T10:27:42;8.90;99.90
15969;DHT22;8085;53.472;9.794;2024-01-30T10:30:12;9.00;99.90
15969;DHT22;8085;53.472;9.794;2024-01-30T10:32:40;9.00;99.90
15969;DHT22;8085;53.472;9.794;2024-01-30T10:35:07;9.10;99.90
15969;DHT22;8085;53.472;9.794;2024-01-30T10:37:34;9.10;99.90
15969;DHT22;8085;53.472;9.794;2024-01-30T10:40:04;9.20;99.90
15969;DHT22;8085;53.472;9.794;2024-01-30T10:42:33;9.20;99.90
15969;DHT22;8085;53.472;9.794;2024-01-30T10:45:06;9.30;99.90
15969;DHT22;8085;53.472;9.794;2024-01-30T10:47:48;9.30;99.90
15969;DHT22;8085;53.472;9.794;2024-01-30T10:50:16;9.40;99.90
15969;DHT22;8085;53.472;9.794;2024-01-30T10:52:45;9.50;99.90
15969;DHT22;8085;53.472;9.794;2024-01-30T10:55:15;9.50;99.90
15969;DHT22;8085;53.472;9.794;2024-01-30T10:57:44;9.60;99.90
15969;DHT22;8085;53.472;9.794;2024-01-30T11:00:14;9.70;99.90
15969;DHT22;8085;53.472;9.794;2024-01-30T11:02:43;9.70;99.90
15969;DHT22;8085;53.472;9.794;2024-01-30T11:05:10;9.70;99.90
15969;DHT22;8085;53.472;9.794;2024-01-30T11:07:39;9.80;99.90
15969;DHT22;8085;53.472;9.794;2024-01-30T11:10:07;9.80;99.90
15969;DHT22;8085;53.472;9.794;2024-01-30T11:12:38;9.90;99.90
15969;DHT22;8085;53.472;9.794;2024-01-30T11:15:08;9.90;99.90
15969;DHT22;8085;53.472;9.794;2024-01-30T11:17:43;9.90;99.90
15969;DHT22;8085;53.472;9.794;2024-01-30T11:20:10;10.00;99.90
15969;DHT22;8085;53.472;9.794;2024-01-30T11:22:41;10.00;99.90
15969;DHT22;8085;53.472;9.794;2024-01-30T11:25:13;10.00;99.90
15969;DHT22;8085;53.472;9.794;2024-01-30T11:27:41;10.00;99.90
15969;DHT22;8085;53.472;9.794;2024-01-30T11:30:10;10.00;99.90
15969;DHT22;8085;53.472;9.794;2024-01-30T11:32:37;10.00;99.90
15969;DHT22;8085;53.472;9.794;2024-01-30T11:35:05;9.90;99.90
15969;DHT22;8085;53.472;9.794;2024-01-30T11:37:36;9.90;99.90
15969;DHT22;8085;53.472;9.794;2024-01-30T11:40:05;9.80;99.90
15969;DHT22;8085;53.472;9.794;2024-01-30T11:42:32;9.80;99.90
15969;DHT22;8085;53.472;9.794;2024-01-30T11:45:00;9.80;99.90
15969;DHT22;8085;53.472;9.794;2024-01-30T11:47:29;9.80;99.90
15969;DHT22;8085;53.472;9.794;2024-01-30T11:49:57;9.80;99.90
15969;DHT22;8085;53.472;9.794;2024-01-30T11:52:24;9.90;99.90
15969;DHT22;8085;53.472;9.794;2024-01-30T11:54:51;9.80;99.90
15969;DHT22;8085;53.472;9.794;2024-01-30T11:57:18;9.90;99.90
15969;DHT22;8085;53.472;9.794;2024-01-30T11:59:44;9.80;99.90
15969;DHT22;8085;53.472;9.794;2024-01-30T12:02:15;9.80;99.90
15969;DHT22;8085;53.472;9.794;2024-01-30T12:04:45;9.80;99.90
15969;DHT22;8085;53.472;9.794;2024-01-30T12:07:12;9.80;99.90
15969;DHT22;8085;53.472;9.794;2024-01-30T12:09:52;9.80;99.90
15969;DHT22;8085;53.472;9.794;2024-01-30T12:12:22;9.80;99.90
15969;DHT22;8085;53.472;9.794;2024-01-30T12:14:49;9.80;99.90
15969;DHT22;8085;53.472;9.794;2024-01-30T12:17:23;9.80;99.90
15969;DHT22;8085;53.472;9.794;2024-01-30T12:20:02;9.80;99.90
15969;DHT22;8085;53.472;9.794;2024-01-30T12:22:30;9.80;99.90
15969;DHT22;8085;53.472;9.794;2024-01-30T12:24:58;9.90;99.90
15969;DHT22;8085;53.472;9.794;2024-01-30T12:27:25;9.90;99.90
15969;DHT22;8085;53.472;9.794;2024-01-30T12:29:56;9.90;99.90
15969;DHT22;8085;53.472;9.794;2024-01-30T12:32:23;9.90;99.90
15969;DHT22;8085;53.472;9.794;2024-01-30T12:34:54;10.00;99.90
15969;DHT22;8085;53.472;9.794;2024-01-30T12:37:20;10.00;99.90
15969;DHT22;8085;53.472;9.794;2024-01-30T12:39:52;10.00;99.90
15969;DHT22;8085;53.472;9.794;2024-01-30T12:42:22;10.00;99.90
15969;DHT22;8085;53.472;9.794;2024-01-30T12:44:49;10.00;99.90
15969;DHT22;8085;53.472;9.794;2024-01-30T12:47:16;10.10;99.90
15969;DHT22;8085;53.472;9.794;2024-01-30T12:49:43;10.00;99.90
15969;DHT22;8085;53.472;9.794;2024-01-30T12:52:13;10.10;99.90
15969;DHT22;8085;53.472;9.794;2024-01-30T12:54:40;10.10;99.90
15969;DHT22;8085;53.472;9.794;2024-01-30T12:57:07;10.10;99.90
15969;DHT22;8085;53.472;9.794;2024-01-30T12:59:34;10.10;99.90
15969;DHT22;8085;53.472;9.794;2024-01-30T13:02:01;10.20;99.90
15969;DHT22;8085;53.472;9.794;2024-01-30T13:04:29;10.20;99.90
15969;DHT22;8085;53.472;9.794;2024-01-30T13:06:58;10.10;99.90
15969;DHT22;8085;53.472;9.794;2024-01-30T13:09:29;10.10;99.90
15969;DHT22;8085;53.472;9.794;2024-01-30T13:11:56;10.20;99.90
15969;DHT22;8085;53.472;9.794;2024-01-30T13:14:24;10.20;99.90
15969;DHT22;8085;53.472;9.794;2024-01-30T13:16:51;10.20;99.90
15969;DHT22;8085;53.472;9.794;2024-01-30T13:19:18;10.20;99.90
15969;DHT22;8085;53.472;9.794;2024-01-30T13:21:46;10.20;99.90
15969;DHT22;8085;53.472;9.794;2024-01-30T13:24:13;10.10;99.90
15969;DHT22;8085;53.472;9.794;2024-01-30T13:26:42;10.20;99.90
15969;DHT22;8085;53.472;9.794;2024-01-30T13:29:09;10.30;99.90
15969;DHT22;8085;53.472;9.794;2024-01-30T13:31:36;10.20;99.90
15969;DHT22;8085;53.472;9.794;2024-01-30T13:34:04;10.30;99.90
15969;DHT22;8085;53.472;9.794;2024-01-30T13:36:32;10.30;99.90
15969;DHT22;8085;53.472;9.794;2024-01-30T13:38:59;10.30;99.90
15969;DHT22;8085;53.472;9.794;2024-01-30T13:41:27;10.20;99.90
15969;DHT22;8085;53.472;9.794;2024-01-30T13:43:56;10.40;99.90
15969;DHT22;8085;53.472;9.794;2024-01-30T13:46:23;10.40;99.90
15969;DHT22;8085;53.472;9.794;2024-01-30T13:48:50;10.50;99.90
15969;DHT22;8085;53.472;9.794;2024-01-30T13:51:17;10.40;99.90
15969;DHT22;8085;53.472;9.794;2024-01-30T13:53:44;10.40;99.90
15969;DHT22;8085;53.472;9.794;2024-01-30T13:56:19;10.40;99.90
15969;DHT22;8085;53.472;9.794;2024-01-30T13:58:47;10.40;99.90
15969;DHT22;8085;53.472;9.794;2024-01-30T14:01:15;10.40;99.90
15969;DHT22;8085;53.472;9.794;2024-01-30T14:03:42;10.60;99.90
15969;DHT22;8085;53.472;9.794;2024-01-30T14:06:09;10.50;99.90
15969;DHT22;8085;53.472;9.794;2024-01-30T14:08:36;10.50;99.90
15969;DHT22;8085;53.472;9.794;2024-01-30T14:11:04;10.50;99.90
15969;DHT22;8085;53.472;9.794;2024-01-30T14:13:32;10.50;99.90
15969;DHT22;8085;53.472;9.794;2024-01-30T14:16:01;10.60;99.90
15969;DHT22;8085;53.472;9.794;2024-01-30T14:18:29;10.50;99.90
15969;DHT22;8085;53.472;9.794;2024-01-30T14:21:03;10.60;99.90
15969;DHT22;8085;53.472;9.794;2024-01-30T14:23:41;10.60;99.90
15969;DHT22;8085;53.472;9.794;2024-01-30T14:40:17;10.60;99.90
15969;DHT22;8085;53.472;9.794;2024-01-30T14:42:48;10.60;99.90
15969;DHT22;8085;53.472;9.794;2024-01-30T14:46:05;10.70;99.90
15969;DHT22;8085;53.472;9.794;2024-01-30T14:53:08;10.50;99.90
15969;DHT22;8085;53.472;9.794;2024-01-30T14:55:40;10.60;99.90
15969;DHT22;8085;53.472;9.794;2024-01-30T14:58:23;10.60;99.90
15969;DHT22;8085;53.472;9.794;2024-01-30T15:00:59;10.60;99.90
15969;DHT22;8085;53.472;9.794;2024-01-30T15:03:46;10.50;99.90
15969;DHT22;8085;53.472;9.794;2024-01-30T15:06:17;10.60;99.90
15969;DHT22;8085;53.472;9.794;2024-01-30T15:08:46;10.60;99.90
15969;DHT22;8085;53.472;9.794;2024-01-30T15:11:16;10.70;99.90
15969;DHT22;8085;53.472;9.794;2024-01-30T15:13:46;10.70;99.90
15969;DHT22;8085;53.472;9.794;2024-01-30T15:16:14;10.70;99.90
15969;DHT22;8085;53.472;9.794;2024-01-30T15:18:44;10.70;99.90
15969;DHT22;8085;53.472;9.794;2024-01-30T15:21:26;10.70;99.90
15969;DHT22;8085;53.472;9.794;2024-01-30T15:23:54;10.70;99.90
15969;DHT22;8085;53.472;9.794;2024-01-30T15:30:19;10.70;99.90
15969;DHT22;8085;53.472;9.794;2024-01-30T15:34:00;10.80;99.90
15969;DHT22;8085;53.472;9.794;2024-01-30T15:37:08;10.80;99.90
15969;DHT22;8085;53.472;9.794;2024-01-30T15:40:27;10.70;99.90
15969;DHT22;8085;53.472;9.794;2024-01-30T15:46:05;10.70;99.90
15969;DHT22;8085;53.472;9.794;2024-01-30T15:46:53;10.80;99.90
15969;DHT22;8085;53.472;9.794;2024-01-30T15:51:12;10.70;99.90
15969;DHT22;8085;53.472;9.794;2024-01-30T15:54:17;10.70;99.90
15969;DHT22;8085;53.472;9.794;2024-01-30T15:57:16;10.70;99.90
15969;DHT22;8085;53.472;9.794;2024-01-30T15:59:57;10.70;99.90
15969;DHT22;8085;53.472;9.794;2024-01-30T16:02:26;10.60;99.90
15969;DHT22;8085;53.472;9.794;2024-01-30T16:04:57;10.70;99.90
15969;DHT22;8085;53.472;9.794;2024-01-30T16:07:24;10.60;99.90
15969;DHT22;8085;53.472;9.794;2024-01-30T16:09:51;10.70;99.90
15969;DHT22;8085;53.472;9.794;2024-01-30T16:12:18;10.60;99.90
15969;DHT22;8085;53.472;9.794;2024-01-30T16:17:51;10.60;99.90
15969;DHT22;8085;53.472;9.794;2024-01-30T16:20:19;10.50;99.90
15969;DHT22;8085;53.472;9.794;2024-01-30T16:22:46;10.60;99.90
15969;DHT22;8085;53.472;9.794;2024-01-30T16:25:34;10.60;99.90
15969;DHT22;8085;53.472;9.794;2024-01-30T16:28:37;10.60;99.90
15969;DHT22;8085;53.472;9.794;2024-01-30T16:31:15;10.60;99.90
15969;DHT22;8085;53.472;9.794;2024-01-30T16:34:22;10.60;99.90
15969;DHT22;8085;53.472;9.794;2024-01-30T16:36:52;10.60;99.90
15969;DHT22;8085;53.472;9.794;2024-01-30T16:39:19;10.60;99.90
15969;DHT22;8085;53.472;9.794;2024-01-30T16:41:57;10.60;99.90
15969;DHT22;8085;53.472;9.794;2024-01-30T16:44:24;10.60;99.90
15969;DHT22;8085;53.472;9.794;2024-01-30T16:46:51;10.60;99.90
15969;DHT22;8085;53.472;9.794;2024-01-30T16:49:19;10.60;99.90
15969;DHT22;8085;53.472;9.794;2024-01-30T16:51:46;10.60;99.90
15969;DHT22;8085;53.472;9.794;2024-01-30T16:54:16;10.70;99.90
15969;DHT22;8085;53.472;9.794;2024-01-30T16:56:43;10.60;99.90
15969;DHT22;8085;53.472;9.794;2024-01-30T16:59:33;10.70;99.90
15969;DHT22;8085;53.472;9.794;2024-01-30T17:02:00;10.60;99.90